createdAt,value
2018-09-28T00:00:20.578Z,61.00
2018-09-28T00:02:50.052Z,61.43
2018-09-28T00:05:20.071Z,60.79
2018-09-28T00:07:50.086Z,61.06
2018-09-28T00:10:20.106Z,60.86
2018-09-28T00:12:50.115Z,61.46
2018-09-28T00:15:20.135Z,61.43
2018-09-28T00:17:50.067Z,61.41
2018-09-28T00:20:20.184Z,61.30
2018-09-28T00:22:50.073Z,61.34
2018-09-28T00:25:20.096Z,61.70
2018-09-28T00:27:50.275Z,61.37
2018-09-28T00:30:20.134Z,61.04
2018-09-28T00:32:50.266Z,60.61
2018-09-28T00:35:20.167Z,60.60
2018-09-28T00:37:50.124Z,60.94
2018-09-28T00:40:20.266Z,60.58
2018-09-28T00:42:50.198Z,60.93
2018-09-28T00:45:20.148Z,61.47
2018-09-28T00:47:50.144Z,61.33
2018-09-28T00:50:20.163Z,60.86
2018-09-28T00:52:50.203Z,60.54
2018-09-28T00:55:20.210Z,61.55
2018-09-28T00:57:50.220Z,60.68
2018-09-28T01:00:20.498Z,60.65
2018-09-28T01:02:50.267Z,61.30
2018-09-28T01:05:20.286Z,60.55
2018-09-28T01:07:50.287Z,60.86
2018-09-28T01:10:20.226Z,61.57
2018-09-28T01:12:50.278Z,61.68
2018-09-28T01:15:20.293Z,60.77
2018-09-28T01:17:50.275Z,61.54
2018-09-28T01:20:20.269Z,61.07
2018-09-28T01:22:50.353Z,61.46
2018-09-28T01:25:20.369Z,61.10
2018-09-28T01:27:50.327Z,60.86
2018-09-28T01:30:20.362Z,61.24
2018-09-28T01:32:50.274Z,61.64
2018-09-28T01:35:20.294Z,61.09
2018-09-28T01:37:50.342Z,61.54
2018-09-28T01:40:20.367Z,61.31
2018-09-28T01:42:50.361Z,61.43
2018-09-28T01:45:20.393Z,61.59
2018-09-28T01:47:50.425Z,61.07
2018-09-28T01:50:20.434Z,61.60
2018-09-28T01:52:50.531Z,61.07
2018-09-28T01:55:20.522Z,60.85
2018-09-28T01:57:50.366Z,60.72
2018-09-28T02:00:20.366Z,60.52
2018-09-28T02:02:50.507Z,60.85
2018-09-28T02:05:20.535Z,61.09
2018-09-28T02:07:50.485Z,60.94
2018-09-28T02:10:20.496Z,60.38
2018-09-28T02:12:50.422Z,61.15
2018-09-28T02:15:20.375Z,60.66
2018-09-28T02:17:50.514Z,60.91
2018-09-28T02:20:20.495Z,60.75
2018-09-28T02:22:50.710Z,61.43
2018-09-28T02:25:20.459Z,61.89
2018-09-28T02:27:50.395Z,61.24
2018-09-28T02:30:20.476Z,61.18
2018-09-28T02:32:50.484Z,60.82
2018-09-28T02:35:20.486Z,61.72
2018-09-28T02:37:50.648Z,60.95
2018-09-28T02:40:20.543Z,60.40
2018-09-28T02:42:50.531Z,61.44
2018-09-28T02:45:20.460Z,61.39
2018-09-28T02:47:50.435Z,61.64
2018-09-28T02:50:20.516Z,61.71
2018-09-28T02:52:50.551Z,61.68
2018-09-28T02:55:20.535Z,61.70
2018-09-28T02:57:50.509Z,61.60
2018-09-28T03:00:20.563Z,61.50
2018-09-28T03:02:50.467Z,61.63
2018-09-28T03:05:20.614Z,61.25
2018-09-28T03:07:50.500Z,61.12
2018-09-28T03:10:20.530Z,61.66
2018-09-28T03:12:50.539Z,61.79
2018-09-28T03:15:20.710Z,61.51
2018-09-28T03:17:50.633Z,61.75
2018-09-28T03:20:20.630Z,62.26
2018-09-28T03:22:50.607Z,61.32
2018-09-28T03:25:20.883Z,61.31
2018-09-28T03:27:50.646Z,61.92
2018-09-28T03:30:20.596Z,61.48
2018-09-28T03:32:50.585Z,61.52
2018-09-28T03:35:20.622Z,61.95
2018-09-28T03:37:50.618Z,62.41
2018-09-28T03:40:20.646Z,61.96
2018-09-28T03:42:51.762Z,62.16
2018-09-28T03:45:20.938Z,62.24
2018-09-28T03:47:50.827Z,62.54
2018-09-28T03:50:20.620Z,62.49
2018-09-28T03:52:50.614Z,62.29
2018-09-28T03:55:20.643Z,62.24
2018-09-28T03:57:50.705Z,62.18
2018-09-28T04:00:20.631Z,62.24
2018-09-28T04:02:50.724Z,61.73
2018-09-28T04:05:20.805Z,62.35
2018-09-28T04:07:50.786Z,61.66
2018-09-28T04:10:20.763Z,62.73
2018-09-28T04:12:50.797Z,61.66
2018-09-28T04:15:20.867Z,62.44
2018-09-28T04:17:50.667Z,62.07
2018-09-28T04:20:20.730Z,62.35
2018-09-28T04:22:50.726Z,62.41
2018-09-28T04:25:20.766Z,62.31
2018-09-28T04:27:50.793Z,62.03
2018-09-28T04:30:20.692Z,62.06
2018-09-28T04:32:50.907Z,62.37
2018-09-28T04:35:20.977Z,62.45
2018-09-28T04:37:50.835Z,61.97
2018-09-28T04:40:20.866Z,62.74
2018-09-28T04:42:50.742Z,62.82
2018-09-28T04:45:20.885Z,63.29
2018-09-28T04:47:51.247Z,62.63
2018-09-28T04:50:20.762Z,63.06
2018-09-28T04:52:50.803Z,62.82
2018-09-28T04:55:20.875Z,63.01
2018-09-28T04:57:50.856Z,62.18
2018-09-28T05:00:20.872Z,62.24
2018-09-28T05:02:50.806Z,63.21
2018-09-28T05:05:20.859Z,62.09
2018-09-28T05:07:50.891Z,61.97
2018-09-28T05:10:20.830Z,62.42
2018-09-28T05:12:50.844Z,62.05
2018-09-28T05:15:20.825Z,62.35
2018-09-28T05:17:50.819Z,62.23
2018-09-28T05:20:20.916Z,62.55
2018-09-28T05:22:50.892Z,62.48
2018-09-28T05:25:20.939Z,62.29
2018-09-28T05:27:50.850Z,62.60
2018-09-28T05:30:20.888Z,62.85
2018-09-28T05:32:51.108Z,62.74
2018-09-28T05:35:20.867Z,62.53
2018-09-28T05:37:50.995Z,62.76
2018-09-28T05:40:20.871Z,62.39
2018-09-28T05:42:50.967Z,62.02
2018-09-28T05:45:21.010Z,62.51
2018-09-28T05:47:50.895Z,62.80
2018-09-28T05:50:20.935Z,63.20
2018-09-28T05:52:50.902Z,62.03
2018-09-28T05:55:20.960Z,62.74
2018-09-28T05:57:52.761Z,63.31
2018-09-28T06:00:27.246Z,63.17
2018-09-28T06:03:01.604Z,62.74
2018-09-28T06:05:33.119Z,62.96
2018-09-28T06:08:02.746Z,64.24
2018-09-28T06:10:31.964Z,63.69
2018-09-28T06:13:01.122Z,63.55
2018-09-28T06:15:30.301Z,63.12
2018-09-28T06:17:59.502Z,63.25
2018-09-28T06:20:28.599Z,63.51
2018-09-28T06:22:57.999Z,63.71
2018-09-28T06:25:27.238Z,62.99
2018-09-28T06:27:56.391Z,63.16
2018-09-28T06:30:25.520Z,63.50
2018-09-28T06:32:55.118Z,63.55
2018-09-28T06:35:24.275Z,63.03
2018-09-28T06:37:54.355Z,63.17
2018-09-28T06:40:23.539Z,63.32
2018-09-28T06:42:52.711Z,63.43
2018-09-28T06:45:21.946Z,63.78
2018-09-28T06:47:51.166Z,63.75
2018-09-28T06:50:21.106Z,63.29
2018-09-28T06:52:51.134Z,63.79
2018-09-28T06:55:21.139Z,63.40
2018-09-28T06:57:51.139Z,64.10
2018-09-28T07:00:21.231Z,63.66
2018-09-28T07:02:51.115Z,64.08
2018-09-28T07:05:21.135Z,63.07
2018-09-28T07:07:51.371Z,63.33
2018-09-28T07:10:21.171Z,62.91
2018-09-28T07:12:51.263Z,62.11
2018-09-28T07:15:21.202Z,62.87
2018-09-28T07:17:51.169Z,62.42
2018-09-28T07:20:21.254Z,61.96
2018-09-28T07:22:51.235Z,62.00
2018-09-28T07:25:21.159Z,62.09
2018-09-28T07:27:51.158Z,62.41
2018-09-28T07:30:21.291Z,61.81
2018-09-28T07:32:51.207Z,62.66
2018-09-28T07:35:21.243Z,62.73
2018-09-28T07:37:51.255Z,61.33
2018-09-28T07:40:21.195Z,62.21
2018-09-28T07:42:51.186Z,61.68
2018-09-28T07:45:21.299Z,61.96
2018-09-28T07:47:51.346Z,61.57
2018-09-28T07:50:21.252Z,62.91
2018-09-28T07:52:51.235Z,61.86
2018-09-28T07:55:21.246Z,60.30
2018-09-28T07:57:51.274Z,60.99
2018-09-28T08:00:21.374Z,60.51
2018-09-28T08:02:51.247Z,59.65
2018-09-28T08:05:21.334Z,59.59
2018-09-28T08:07:51.348Z,59.39
2018-09-28T08:10:21.287Z,57.71
2018-09-28T08:12:51.379Z,58.46
2018-09-28T08:15:21.295Z,57.97
2018-09-28T08:17:51.321Z,58.10
2018-09-28T08:20:21.300Z,57.91
2018-09-28T08:22:51.342Z,57.06
2018-09-28T08:25:21.487Z,57.36
2018-09-28T08:27:51.388Z,57.22
2018-09-28T08:30:21.339Z,57.15
2018-09-28T08:32:51.343Z,57.03
2018-09-28T08:35:21.439Z,57.65
2018-09-28T08:37:51.533Z,57.25
2018-09-28T08:40:21.368Z,57.10
2018-09-28T08:42:51.383Z,56.34
2018-09-28T08:45:21.404Z,55.37
2018-09-28T08:47:51.415Z,54.39
2018-09-28T08:50:21.419Z,54.12
2018-09-28T08:52:51.442Z,53.11
2018-09-28T08:55:21.387Z,53.56
2018-09-28T08:57:51.486Z,52.95
2018-09-28T09:00:21.759Z,52.73
2018-09-28T09:02:51.400Z,51.05
2018-09-28T09:05:21.414Z,51.27
2018-09-28T09:07:51.614Z,51.26
2018-09-28T09:10:21.467Z,51.97
2018-09-28T09:12:51.476Z,51.51
2018-09-28T09:15:21.514Z,51.72
2018-09-28T09:17:51.541Z,53.03
2018-09-28T09:20:21.556Z,52.76
2018-09-28T09:22:51.451Z,52.29
2018-09-28T09:25:21.475Z,52.60
2018-09-28T09:27:51.477Z,50.56
2018-09-28T09:30:21.495Z,49.60
2018-09-28T09:32:51.506Z,49.82
2018-09-28T09:35:21.551Z,49.54
2018-09-28T09:37:51.547Z,50.10
2018-09-28T09:40:21.580Z,49.35
2018-09-28T09:42:51.578Z,50.23
2018-09-28T09:45:21.608Z,49.37
2018-09-28T09:47:51.632Z,47.77
2018-09-28T09:50:21.683Z,48.90
2018-09-28T09:52:51.605Z,49.62
2018-09-28T09:55:21.660Z,47.25
2018-09-28T09:57:51.626Z,47.82
2018-09-28T10:00:26.840Z,47.82
2018-09-28T10:03:02.242Z,47.33
2018-09-28T10:05:31.651Z,47.58
2018-09-28T10:08:00.790Z,48.57
2018-09-28T10:10:29.943Z,49.72
2018-09-28T10:12:59.087Z,49.77
2018-09-28T10:15:28.259Z,48.47
2018-09-28T10:17:57.397Z,46.04
2018-09-28T10:20:26.619Z,46.30
2018-09-28T10:22:55.903Z,46.08
2018-09-28T10:25:25.055Z,45.49
2018-09-28T10:27:54.280Z,46.05
2018-09-28T10:30:23.335Z,46.85
2018-09-28T10:32:52.487Z,45.67
2018-09-28T10:35:21.778Z,46.60
2018-09-28T10:37:51.763Z,45.60
2018-09-28T10:40:21.728Z,44.75
2018-09-28T10:42:51.702Z,45.59
2018-09-28T10:45:21.758Z,44.66
2018-09-28T10:47:51.725Z,44.26
2018-09-28T10:50:21.736Z,44.43
2018-09-28T10:52:51.811Z,44.94
2018-09-28T10:55:21.739Z,44.21
2018-09-28T10:57:51.735Z,43.38
2018-09-28T11:00:21.874Z,42.38
2018-09-28T11:02:51.879Z,41.57
2018-09-28T11:05:21.773Z,40.76
2018-09-28T11:07:51.739Z,39.88
2018-09-28T11:10:21.812Z,39.09
2018-09-28T11:12:51.763Z,41.17
2018-09-28T11:15:21.849Z,40.24
2018-09-28T11:17:51.770Z,39.45
2018-09-28T11:20:21.986Z,38.18
2018-09-28T11:22:51.904Z,34.33
2018-09-28T11:25:21.919Z,35.55
2018-09-28T11:27:51.795Z,34.81
2018-09-28T11:30:21.858Z,34.97
2018-09-28T11:32:51.839Z,34.86
2018-09-28T11:35:21.887Z,34.86
2018-09-28T11:37:51.909Z,36.28
2018-09-28T11:40:21.819Z,38.02
2018-09-28T11:42:51.915Z,38.64
2018-09-28T11:45:21.905Z,37.34
2018-09-28T11:47:52.028Z,36.71
2018-09-28T11:50:21.960Z,35.30
2018-09-28T11:52:51.962Z,34.87
2018-09-28T11:55:21.918Z,32.99
2018-09-28T11:57:51.938Z,31.73
2018-09-28T12:00:21.942Z,31.01
2018-09-28T12:02:51.960Z,32.89
2018-09-28T12:05:21.903Z,33.99
2018-09-28T12:07:51.975Z,34.87
2018-09-28T12:10:21.981Z,35.87
2018-09-28T12:12:51.922Z,35.50
2018-09-28T12:15:21.975Z,33.37
2018-09-28T12:17:51.939Z,34.80
2018-09-28T12:20:21.951Z,35.61
2018-09-28T12:22:51.943Z,34.13
2018-09-28T12:25:22.048Z,35.25
2018-09-28T12:27:52.088Z,34.67
2018-09-28T12:30:21.989Z,35.08
2018-09-28T12:32:51.979Z,35.16
2018-09-28T12:35:22.680Z,34.84
2018-09-28T12:37:52.133Z,34.20
2018-09-28T12:40:22.107Z,35.07
2018-09-28T12:42:52.196Z,34.94
2018-09-28T12:45:22.043Z,35.20
2018-09-28T12:47:52.057Z,35.77
2018-09-28T12:50:22.101Z,34.85
2018-09-28T12:52:52.137Z,35.38
2018-09-28T12:55:22.042Z,35.22
2018-09-28T12:57:52.113Z,35.12
2018-09-28T13:00:23.609Z,35.55
2018-09-28T13:02:52.928Z,34.73
2018-09-28T13:05:22.146Z,35.43
2018-09-28T13:07:52.094Z,35.38
2018-09-28T13:10:22.111Z,34.96
2018-09-28T13:12:52.127Z,36.24
2018-09-28T13:15:22.200Z,34.43
2018-09-28T13:17:52.147Z,34.42
2018-09-28T13:20:22.186Z,33.28
2018-09-28T13:22:52.218Z,34.90
2018-09-28T13:25:22.197Z,33.86
2018-09-28T13:27:52.124Z,34.75
2018-09-28T13:30:22.154Z,34.13
2018-09-28T13:32:52.233Z,34.64
2018-09-28T13:35:22.257Z,33.68
2018-09-28T13:37:52.186Z,33.64
2018-09-28T13:40:22.407Z,36.01
2018-09-28T13:42:52.230Z,35.96
2018-09-28T13:45:22.201Z,36.03
2018-09-28T13:47:52.291Z,36.30
2018-09-28T13:50:22.335Z,35.96
2018-09-28T13:52:52.440Z,37.59
2018-09-28T13:55:22.236Z,38.20
2018-09-28T13:57:52.215Z,37.71
2018-09-28T14:00:22.257Z,38.49
2018-09-28T14:02:52.268Z,37.15
2018-09-28T14:05:22.275Z,36.59
2018-09-28T14:07:52.538Z,36.57
2018-09-28T14:10:22.322Z,36.91
2018-09-28T14:12:52.471Z,37.34
2018-09-28T14:15:22.247Z,36.42
2018-09-28T14:17:52.511Z,37.18
2018-09-28T14:20:22.374Z,36.23
2018-09-28T14:22:52.464Z,35.60
2018-09-28T14:25:22.284Z,35.66
2018-09-28T14:27:52.325Z,35.74
2018-09-28T14:30:22.313Z,36.28
2018-09-28T14:32:52.424Z,37.34
2018-09-28T14:35:22.307Z,37.64
2018-09-28T14:37:52.279Z,37.93
2018-09-28T14:40:22.419Z,38.76
2018-09-28T14:42:52.272Z,38.52
2018-09-28T14:45:22.442Z,38.38
2018-09-28T14:47:52.343Z,37.76
2018-09-28T14:50:22.590Z,38.50
2018-09-28T14:52:58.726Z,40.29
2018-09-28T14:55:27.903Z,39.54
2018-09-28T14:57:57.051Z,39.58
2018-09-28T15:00:26.220Z,38.92
2018-09-28T15:02:55.345Z,39.55
2018-09-28T15:05:24.499Z,39.60
2018-09-28T15:07:53.681Z,39.80
2018-09-28T15:10:23.001Z,40.56
2018-09-28T15:12:52.346Z,40.03
2018-09-28T15:15:22.476Z,39.37
2018-09-28T15:17:52.355Z,39.72
2018-09-28T15:20:22.403Z,40.00
2018-09-28T15:22:52.566Z,39.81
2018-09-28T15:25:22.542Z,39.70
2018-09-28T15:27:52.721Z,38.92
2018-09-28T15:30:22.489Z,38.92
2018-09-28T15:32:52.461Z,39.30
2018-09-28T15:35:22.558Z,39.65
2018-09-28T15:37:52.743Z,40.30
2018-09-28T15:40:22.417Z,39.95
2018-09-28T15:42:52.695Z,40.17
2018-09-28T15:45:22.454Z,40.44
2018-09-28T15:47:52.534Z,40.13
2018-09-28T15:50:22.655Z,41.62
2018-09-28T15:52:52.535Z,41.70
2018-09-28T15:55:22.466Z,42.40
2018-09-28T15:57:52.534Z,41.23
2018-09-28T16:00:22.726Z,41.61
2018-09-28T16:02:52.783Z,41.90
2018-09-28T16:05:22.456Z,42.77
2018-09-28T16:07:52.508Z,42.92
2018-09-28T16:10:22.515Z,42.49
2018-09-28T16:12:52.691Z,43.69
2018-09-28T16:15:22.557Z,43.84
2018-09-28T16:17:52.567Z,43.68
2018-09-28T16:20:22.606Z,43.74
2018-09-28T16:22:52.629Z,43.16
2018-09-28T16:25:22.523Z,43.19
2018-09-28T16:27:52.674Z,43.69
2018-09-28T16:30:22.651Z,43.79
2018-09-28T16:32:53.031Z,45.03
2018-09-28T16:35:22.546Z,45.09
2018-09-28T16:37:52.513Z,44.98
2018-09-28T16:40:22.532Z,43.83
2018-09-28T16:42:52.639Z,43.82
2018-09-28T16:45:22.552Z,43.86
2018-09-28T16:47:52.619Z,43.93
2018-09-28T16:50:22.581Z,44.18
2018-09-28T16:52:52.763Z,44.77
2018-09-28T16:55:22.687Z,44.66
2018-09-28T16:57:52.728Z,42.80
2018-09-28T17:00:22.616Z,42.76
2018-09-28T17:02:52.703Z,42.52
2018-09-28T17:05:22.611Z,41.86
2018-09-28T17:07:52.798Z,41.13
2018-09-28T17:10:22.656Z,40.59
2018-09-28T17:12:52.643Z,40.13
2018-09-28T17:15:22.658Z,40.18
2018-09-28T17:17:52.694Z,39.80
2018-09-28T17:20:22.764Z,39.69
2018-09-28T17:22:52.840Z,40.02
2018-09-28T17:25:22.710Z,39.23
2018-09-28T17:27:52.749Z,38.69
2018-09-28T17:30:22.994Z,39.62
2018-09-28T17:32:52.691Z,40.24
2018-09-28T17:35:22.662Z,40.33
2018-09-28T17:37:52.731Z,40.58
2018-09-28T17:40:22.774Z,41.09
2018-09-28T17:42:52.757Z,41.05
2018-09-28T17:45:22.695Z,41.72
2018-09-28T17:47:53.644Z,42.54
2018-09-28T17:50:22.830Z,43.08
2018-09-28T17:52:52.827Z,42.53
2018-09-28T17:55:22.799Z,43.48
2018-09-28T17:57:52.791Z,43.55
2018-09-28T18:00:22.784Z,43.98
2018-09-28T18:02:52.800Z,45.45
2018-09-28T18:05:22.920Z,45.42
2018-09-28T18:07:52.830Z,46.07
2018-09-28T18:10:22.839Z,46.67
2018-09-28T18:12:52.972Z,47.04
2018-09-28T18:15:22.867Z,47.47
2018-09-28T18:17:52.863Z,48.32
2018-09-28T18:20:23.113Z,49.41
2018-09-28T18:22:53.078Z,49.89
2018-09-28T18:25:22.999Z,50.71
2018-09-28T18:27:52.884Z,52.15
2018-09-28T18:30:22.899Z,52.94
2018-09-28T18:32:52.902Z,53.98
2018-09-28T18:35:22.908Z,54.17
2018-09-28T18:37:53.000Z,53.98
2018-09-28T18:40:22.957Z,54.88
2018-09-28T18:42:53.090Z,54.67
2018-09-28T18:45:22.886Z,54.99
2018-09-28T18:47:52.899Z,54.97
2018-09-28T18:50:22.923Z,55.98
2018-09-28T18:52:52.947Z,56.65
2018-09-28T18:55:24.150Z,57.26
2018-09-28T18:57:53.313Z,56.28
2018-09-28T19:00:22.979Z,56.64
2018-09-28T19:02:53.007Z,57.31
2018-09-28T19:05:22.909Z,57.20
2018-09-28T19:07:53.000Z,56.96
2018-09-28T19:10:22.999Z,58.00
2018-09-28T19:12:53.420Z,57.66
2018-09-28T19:15:23.027Z,58.60
2018-09-28T19:17:52.964Z,60.11
2018-09-28T19:20:23.033Z,59.97
2018-09-28T19:22:53.127Z,60.17
2018-09-28T19:25:23.080Z,59.77
2018-09-28T19:27:53.086Z,60.04
2018-09-28T19:30:22.983Z,60.50
2018-09-28T19:32:53.035Z,60.37
2018-09-28T19:35:23.134Z,59.84
2018-09-28T19:37:53.039Z,60.21
2018-09-28T19:40:23.019Z,60.75
2018-09-28T19:42:53.012Z,60.50
2018-09-28T19:45:23.106Z,61.66
2018-09-28T19:47:53.219Z,61.62
2018-09-28T19:50:23.123Z,60.20
2018-09-28T19:52:53.274Z,61.83
2018-09-28T19:55:23.067Z,61.23
2018-09-28T19:57:53.071Z,61.18
2018-09-28T20:00:23.164Z,61.25
2018-09-28T20:02:53.116Z,61.37
2018-09-28T20:05:23.081Z,62.54
2018-09-28T20:07:53.379Z,62.47
2018-09-28T20:10:23.199Z,62.82
2018-09-28T20:12:53.283Z,63.83
2018-09-28T20:15:23.328Z,65.63
2018-09-28T20:17:53.149Z,64.35
2018-09-28T20:20:23.127Z,64.74
2018-09-28T20:22:53.195Z,66.04
2018-09-28T20:25:23.185Z,67.19
2018-09-28T20:27:53.178Z,68.09
2018-09-28T20:30:23.331Z,67.65
2018-09-28T20:32:53.299Z,68.04
2018-09-28T20:35:23.219Z,68.41
2018-09-28T20:37:53.175Z,67.50
2018-09-28T20:40:23.168Z,68.17
2018-09-28T20:42:53.383Z,68.97
2018-09-28T20:45:23.212Z,68.87
2018-09-28T20:47:53.214Z,69.58
2018-09-28T20:50:23.239Z,68.74
2018-09-28T20:52:53.561Z,69.87
2018-09-28T20:55:23.301Z,69.94
2018-09-28T20:57:53.329Z,69.76
2018-09-28T21:00:23.220Z,70.08
2018-09-28T21:02:53.310Z,69.97
2018-09-28T21:05:23.222Z,70.15
2018-09-28T21:07:53.490Z,71.05
2018-09-28T21:10:23.227Z,70.41
2018-09-28T21:12:53.262Z,69.87
2018-09-28T21:15:23.297Z,69.20
2018-09-28T21:17:53.313Z,68.73
2018-09-28T21:20:23.268Z,68.08
2018-09-28T21:22:53.363Z,67.44
2018-09-28T21:25:23.374Z,66.35
2018-09-28T21:27:53.339Z,66.87
2018-09-28T21:30:23.267Z,66.24
2018-09-28T21:32:53.311Z,65.00
2018-09-28T21:35:23.399Z,65.01
2018-09-28T21:37:53.365Z,65.67
2018-09-28T21:40:23.315Z,65.19
2018-09-28T21:42:53.370Z,65.17
2018-09-28T21:45:23.391Z,65.56
2018-09-28T21:47:53.415Z,64.93
2018-09-28T21:50:23.334Z,65.10
2018-09-28T21:52:53.341Z,65.64
2018-09-28T21:55:23.361Z,65.32
2018-09-28T21:57:53.339Z,65.78
2018-09-28T22:00:23.383Z,66.09
2018-09-28T22:02:53.346Z,64.38
2018-09-28T22:05:23.458Z,64.15
2018-09-28T22:07:53.462Z,63.69
2018-09-28T22:10:23.658Z,63.61
2018-09-28T22:12:53.375Z,63.29
2018-09-28T22:15:23.409Z,63.16
2018-09-28T22:17:53.423Z,62.43
2018-09-28T22:20:23.395Z,60.98
2018-09-28T22:22:53.463Z,61.01
2018-09-28T22:25:23.432Z,61.67
2018-09-28T22:27:53.452Z,61.05
2018-09-28T22:30:23.509Z,61.61
2018-09-28T22:32:53.489Z,61.88
2018-09-28T22:35:23.442Z,61.54
2018-09-28T22:37:53.452Z,61.74
2018-09-28T22:40:23.500Z,60.96
2018-09-28T22:42:53.478Z,61.20
2018-09-28T22:45:23.508Z,60.62
2018-09-28T22:47:53.535Z,61.39
2018-09-28T22:50:23.551Z,62.12
2018-09-28T22:52:53.570Z,62.18
2018-09-28T22:55:23.579Z,61.26
2018-09-28T22:57:53.474Z,61.00
2018-09-28T23:00:23.623Z,61.40
2018-09-28T23:02:53.531Z,59.61
2018-09-28T23:05:23.551Z,60.81
2018-09-28T23:07:53.600Z,60.55
2018-09-28T23:10:23.570Z,60.72
2018-09-28T23:12:53.633Z,60.00
2018-09-28T23:15:23.599Z,59.56
2018-09-28T23:17:53.539Z,59.47
2018-09-28T23:20:23.655Z,58.50
2018-09-28T23:22:53.539Z,58.90
2018-09-28T23:25:23.569Z,59.28
2018-09-28T23:27:53.601Z,59.97
2018-09-28T23:30:23.550Z,58.19
2018-09-28T23:32:53.563Z,59.13
2018-09-28T23:35:23.561Z,58.42
2018-09-28T23:37:53.675Z,59.19
2018-09-28T23:40:23.675Z,59.24
2018-09-28T23:42:53.759Z,59.29
2018-09-28T23:45:23.603Z,58.96
2018-09-28T23:47:53.633Z,58.68
2018-09-28T23:50:23.637Z,58.15
2018-09-28T23:52:53.614Z,58.22
2018-09-28T23:55:23.623Z,57.54
2018-09-28T23:57:53.753Z,58.44
